sensor_id;sensor_type;location;lat;lon;timestamp;temperature;humidity
53422;DHT22;39319;52.944;5.928;2023-03-23T00:00:07;12.40;99.90
53422;DHT22;39319;52.944;5.928;2023-03-23T00:02:34;12.50;99.90
53422;DHT22;39319;52.944;5.928;2023-03-23T00:05:04;12.60;99.90
53422;DHT22;39319;52.944;5.928;2023-03-23T00:07:32;12.50;99.90
53422;DHT22;39319;52.944;5.928;2023-03-23T00:09:58;12.60;99.90
53422;DHT22;39319;52.944;5.928;2023-03-23T00:12:29;12.50;99.90
53422;DHT22;39319;52.944;5.928;2023-03-23T00:15:00;12.70;99.90
53422;DHT22;39319;52.944;5.928;2023-03-23T00:17:29;12.70;99.90
53422;DHT22;39319;52.944;5.928;2023-03-23T00:19:55;12.90;99.90
53422;DHT22;39319;52.944;5.928;2023-03-23T00:22:21;12.90;99.90
53422;DHT22;39319;52.944;5.928;2023-03-23T00:24:51;12.80;99.90
53422;DHT22;39319;52.944;5.928;2023-03-23T00:27:17;12.60;99.90
53422;DHT22;39319;52.944;5.928;2023-03-23T00:29:43;11.90;99.90
53422;DHT22;39319;52.944;5.928;2023-03-23T00:32:12;12.20;99.90
53422;DHT22;39319;52.944;5.928;2023-03-23T00:34:42;12.20;99.90
53422;DHT22;39319;52.944;5.928;2023-03-23T00:37:09;12.30;99.90
53422;DHT22;39319;52.944;5.928;2023-03-23T00:39:37;12.20;99.90
53422;DHT22;39319;52.944;5.928;2023-03-23T00:42:04;12.10;99.90
53422;DHT22;39319;52.944;5.928;2023-03-23T00:44:31;12.10;99.90
53422;DHT22;39319;52.944;5.928;2023-03-23T00:46:59;12.20;99.90
53422;DHT22;39319;52.944;5.928;2023-03-23T00:49:25;12.20;99.90
53422;DHT22;39319;52.944;5.928;2023-03-23T00:51:52;12.20;99.90
53422;DHT22;39319;52.944;5.928;2023-03-23T00:54:19;12.20;99.90
53422;DHT22;39319;52.944;5.928;2023-03-23T00:56:45;12.20;99.90
53422;DHT22;39319;52.944;5.928;2023-03-23T00:59:11;12.20;99.90
53422;DHT22;39319;52.944;5.928;2023-03-23T01:01:37;12.40;99.90
53422;DHT22;39319;52.944;5.928;2023-03-23T01:04:04;12.50;99.90
53422;DHT22;39319;52.944;5.928;2023-03-23T01:06:32;12.40;99.90
53422;DHT22;39319;52.944;5.928;2023-03-23T01:09:01;12.50;99.90
53422;DHT22;39319;52.944;5.928;2023-03-23T01:11:28;12.40;99.90
53422;DHT22;39319;52.944;5.928;2023-03-23T01:13:54;12.40;99.90
53422;DHT22;39319;52.944;5.928;2023-03-23T01:16:21;12.60;99.90
53422;DHT22;39319;52.944;5.928;2023-03-23T01:18:47;12.50;99.90
53422;DHT22;39319;52.944;5.928;2023-03-23T01:21:15;12.70;99.90
53422;DHT22;39319;52.944;5.928;2023-03-23T01:23:41;12.50;99.90
53422;DHT22;39319;52.944;5.928;2023-03-23T01:26:10;12.70;99.90
53422;DHT22;39319;52.944;5.928;2023-03-23T01:28:37;12.50;99.90
53422;DHT22;39319;52.944;5.928;2023-03-23T01:31:04;12.70;99.90
53422;DHT22;39319;52.944;5.928;2023-03-23T01:33:33;12.50;99.90
53422;DHT22;39319;52.944;5.928;2023-03-23T01:36:04;12.70;99.90
53422;DHT22;39319;52.944;5.928;2023-03-23T01:38:30;12.60;99.90
53422;DHT22;39319;52.944;5.928;2023-03-23T01:40:56;12.70;99.90
53422;DHT22;39319;52.944;5.928;2023-03-23T01:43:22;12.60;99.90
53422;DHT22;39319;52.944;5.928;2023-03-23T01:45:48;12.60;99.90
53422;DHT22;39319;52.944;5.928;2023-03-23T01:48:18;12.70;99.90
53422;DHT22;39319;52.944;5.928;2023-03-23T01:50:53;12.70;99.90
53422;DHT22;39319;52.944;5.928;2023-03-23T01:53:22;12.80;99.90
53422;DHT22;39319;52.944;5.928;2023-03-23T01:55:50;12.70;99.90
53422;DHT22;39319;52.944;5.928;2023-03-23T01:58:22;12.70;99.90
53422;DHT22;39319;52.944;5.928;2023-03-23T02:00:52;12.80;99.90
53422;DHT22;39319;52.944;5.928;2023-03-23T02:03:19;12.70;99.90
53422;DHT22;39319;52.944;5.928;2023-03-23T02:05:45;12.70;99.90
53422;DHT22;39319;52.944;5.928;2023-03-23T02:08:11;12.70;99.90
53422;DHT22;39319;52.944;5.928;2023-03-23T02:10:40;12.70;99.90
53422;DHT22;39319;52.944;5.928;2023-03-23T02:13:07;12.60;99.90
53422;DHT22;39319;52.944;5.928;2023-03-23T02:18:24;12.60;99.90
53422;DHT22;39319;52.944;5.928;2023-03-23T02:35:03;12.70;99.90
53422;DHT22;39319;52.944;5.928;2023-03-23T02:37:49;12.70;99.90
53422;DHT22;39319;52.944;5.928;2023-03-23T02:40:33;12.60;99.90
53422;DHT22;39319;52.944;5.928;2023-03-23T02:43:02;12.70;99.90
53422;DHT22;39319;52.944;5.928;2023-03-23T02:45:33;12.80;99.90
53422;DHT22;39319;52.944;5.928;2023-03-23T02:48:02;12.70;99.90
53422;DHT22;39319;52.944;5.928;2023-03-23T02:50:30;12.70;99.90
53422;DHT22;39319;52.944;5.928;2023-03-23T02:52:57;12.60;99.90
53422;DHT22;39319;52.944;5.928;2023-03-23T02:55:25;13.90;99.90
53422;DHT22;39319;52.944;5.928;2023-03-23T02:57:54;12.80;99.90
53422;DHT22;39319;52.944;5.928;2023-03-23T03:00:21;12.70;99.90
53422;DHT22;39319;52.944;5.928;2023-03-23T03:02:52;12.70;99.90
53422;DHT22;39319;52.944;5.928;2023-03-23T03:05:36;12.60;99.90
53422;DHT22;39319;52.944;5.928;2023-03-23T03:10:57;12.70;99.90
53422;DHT22;39319;52.944;5.928;2023-03-23T03:19:17;12.80;99.90
53422;DHT22;39319;52.944;5.928;2023-03-23T03:21:46;12.90;99.90
53422;DHT22;39319;52.944;5.928;2023-03-23T03:24:16;12.70;99.90
53422;DHT22;39319;52.944;5.928;2023-03-23T03:26:46;12.70;99.90
53422;DHT22;39319;52.944;5.928;2023-03-23T03:29:15;12.70;99.90
53422;DHT22;39319;52.944;5.928;2023-03-23T03:31:44;12.80;99.90
53422;DHT22;39319;52.944;5.928;2023-03-23T03:34:11;12.80;99.90
53422;DHT22;39319;52.944;5.928;2023-03-23T03:36:43;12.60;99.90
53422;DHT22;39319;52.944;5.928;2023-03-23T03:39:13;12.60;99.90
53422;DHT22;39319;52.944;5.928;2023-03-23T03:41:41;12.50;99.90
53422;DHT22;39319;52.944;5.928;2023-03-23T03:44:07;12.50;99.90
53422;DHT22;39319;52.944;5.928;2023-03-23T03:46:34;12.70;99.90
53422;DHT22;39319;52.944;5.928;2023-03-23T03:49:02;12.60;99.90
53422;DHT22;39319;52.944;5.928;2023-03-23T03:51:29;12.50;99.90
53422;DHT22;39319;52.944;5.928;2023-03-23T03:53:55;12.70;99.90
53422;DHT22;39319;52.944;5.928;2023-03-23T03:56:22;10.60;99.90
53422;DHT22;39319;52.944;5.928;2023-03-23T03:58:48;12.40;99.90
53422;DHT22;39319;52.944;5.928;2023-03-23T04:01:15;12.40;99.90
53422;DHT22;39319;52.944;5.928;2023-03-23T04:03:42;12.40;99.90
53422;DHT22;39319;52.944;5.928;2023-03-23T04:06:08;12.40;99.90
53422;DHT22;39319;52.944;5.928;2023-03-23T04:08:36;12.50;99.90
53422;DHT22;39319;52.944;5.928;2023-03-23T04:11:03;12.60;99.90
53422;DHT22;39319;52.944;5.928;2023-03-23T04:13:29;12.50;99.90
53422;DHT22;39319;52.944;5.928;2023-03-23T04:15:55;12.50;99.90
53422;DHT22;39319;52.944;5.928;2023-03-23T04:18:22;12.40;99.90
53422;DHT22;39319;52.944;5.928;2023-03-23T04:20:49;12.30;99.90
53422;DHT22;39319;52.944;5.928;2023-03-23T04:23:16;12.40;99.90
53422;DHT22;39319;52.944;5.928;2023-03-23T04:25:48;12.40;99.90
53422;DHT22;39319;52.944;5.928;2023-03-23T04:28:15;12.30;99.90
53422;DHT22;39319;52.944;5.928;2023-03-23T04:30:43;12.20;99.90
53422;DHT22;39319;52.944;5.928;2023-03-23T04:33:09;12.50;99.90
53422;DHT22;39319;52.944;5.928;2023-03-23T04:35:40;12.40;99.90
53422;DHT22;39319;52.944;5.928;2023-03-23T04:38:08;12.40;99.90
53422;DHT22;39319;52.944;5.928;2023-03-23T04:40:38;12.50;99.90
53422;DHT22;39319;52.944;5.928;2023-03-23T04:43:06;12.50;99.90
53422;DHT22;39319;52.944;5.928;2023-03-23T04:45:34;12.50;99.90
53422;DHT22;39319;52.944;5.928;2023-03-23T04:48:04;12.30;99.90
53422;DHT22;39319;52.944;5.928;2023-03-23T04:50:31;12.20;99.90
53422;DHT22;39319;52.944;5.928;2023-03-23T04:53:02;12.40;99.90
53422;DHT22;39319;52.944;5.928;2023-03-23T04:55:32;12.30;99.90
53422;DHT22;39319;52.944;5.928;2023-03-23T04:58:05;12.40;99.90
53422;DHT22;39319;52.944;5.928;2023-03-23T05:00:32;12.30;99.90
53422;DHT22;39319;52.944;5.928;2023-03-23T05:02:58;12.30;99.90
53422;DHT22;39319;52.944;5.928;2023-03-23T05:05:24;12.30;99.90
53422;DHT22;39319;52.944;5.928;2023-03-23T05:07:51;12.30;99.90
53422;DHT22;39319;52.944;5.928;2023-03-23T05:10:19;12.20;99.90
53422;DHT22;39319;52.944;5.928;2023-03-23T05:12:45;12.10;99.90
53422;DHT22;39319;52.944;5.928;2023-03-23T05:15:13;12.30;99.90
53422;DHT22;39319;52.944;5.928;2023-03-23T05:17:40;12.10;99.90
53422;DHT22;39319;52.944;5.928;2023-03-23T05:20:13;12.30;99.90
53422;DHT22;39319;52.944;5.928;2023-03-23T05:22:41;12.20;99.90
53422;DHT22;39319;52.944;5.928;2023-03-23T05:25:08;12.10;99.90
53422;DHT22;39319;52.944;5.928;2023-03-23T05:27:39;12.10;99.90
53422;DHT22;39319;52.944;5.928;2023-03-23T05:30:09;12.10;99.90
53422;DHT22;39319;52.944;5.928;2023-03-23T05:32:35;12.10;99.90
53422;DHT22;39319;52.944;5.928;2023-03-23T05:35:03;12.20;99.90
53422;DHT22;39319;52.944;5.928;2023-03-23T05:37:29;12.20;99.90
53422;DHT22;39319;52.944;5.928;2023-03-23T05:39:58;12.30;99.90
53422;DHT22;39319;52.944;5.928;2023-03-23T05:42:29;12.10;99.90
53422;DHT22;39319;52.944;5.928;2023-03-23T05:44:54;12.10;99.90
53422;DHT22;39319;52.944;5.928;2023-03-23T05:47:20;12.10;99.90
53422;DHT22;39319;52.944;5.928;2023-03-23T05:49:46;12.20;99.90
53422;DHT22;39319;52.944;5.928;2023-03-23T05:52:12;12.10;99.90
53422;DHT22;39319;52.944;5.928;2023-03-23T05:54:40;12.10;99.90
53422;DHT22;39319;52.944;5.928;2023-03-23T05:57:07;12.20;99.90
53422;DHT22;39319;52.944;5.928;2023-03-23T05:59:34;12.20;99.90
53422;DHT22;39319;52.944;5.928;2023-03-23T06:02:00;12.20;99.90
53422;DHT22;39319;52.944;5.928;2023-03-23T06:04:27;12.10;99.90
53422;DHT22;39319;52.944;5.928;2023-03-23T06:06:52;12.20;99.90
53422;DHT22;39319;52.944;5.928;2023-03-23T06:09:19;12.20;99.90
53422;DHT22;39319;52.944;5.928;2023-03-23T06:11:45;12.10;99.90
53422;DHT22;39319;52.944;5.928;2023-03-23T06:14:12;12.10;99.90
53422;DHT22;39319;52.944;5.928;2023-03-23T06:16:38;12.10;99.90
53422;DHT22;39319;52.944;5.928;2023-03-23T06:19:03;12.00;99.90
53422;DHT22;39319;52.944;5.928;2023-03-23T06:21:31;12.00;99.90
53422;DHT22;39319;52.944;5.928;2023-03-23T06:23:57;12.00;99.90
53422;DHT22;39319;52.944;5.928;2023-03-23T06:26:28;12.10;99.90
53422;DHT22;39319;52.944;5.928;2023-03-23T06:28:56;12.20;99.90
53422;DHT22;39319;52.944;5.928;2023-03-23T06:31:23;12.10;99.90
53422;DHT22;39319;52.944;5.928;2023-03-23T06:33:52;12.00;99.90
53422;DHT22;39319;52.944;5.928;2023-03-23T06:36:18;11.90;99.90
53422;DHT22;39319;52.944;5.928;2023-03-23T06:38:46;12.20;99.90
53422;DHT22;39319;52.944;5.928;2023-03-23T06:41:13;12.20;99.90
53422;DHT22;39319;52.944;5.928;2023-03-23T06:43:39;12.00;99.90
53422;DHT22;39319;52.944;5.928;2023-03-23T06:46:07;12.10;99.90
53422;DHT22;39319;52.944;5.928;2023-03-23T06:48:33;12.10;99.90
53422;DHT22;39319;52.944;5.928;2023-03-23T06:50:59;12.10;99.90
53422;DHT22;39319;52.944;5.928;2023-03-23T06:53:25;11.90;99.90
53422;DHT22;39319;52.944;5.928;2023-03-23T06:55:51;12.00;99.90
53422;DHT22;39319;52.944;5.928;2023-03-23T06:58:16;12.10;99.90
53422;DHT22;39319;52.944;5.928;2023-03-23T07:00:42;12.00;99.90
53422;DHT22;39319;52.944;5.928;2023-03-23T07:03:08;12.20;99.90
53422;DHT22;39319;52.944;5.928;2023-03-23T07:05:34;12.20;99.90
53422;DHT22;39319;52.944;5.928;2023-03-23T07:08:04;12.20;99.90
53422;DHT22;39319;52.944;5.928;2023-03-23T07:10:30;12.00;99.90
53422;DHT22;39319;52.944;5.928;2023-03-23T07:12:57;12.10;99.90
53422;DHT22;39319;52.944;5.928;2023-03-23T07:15:23;12.20;99.90
53422;DHT22;39319;52.944;5.928;2023-03-23T07:17:48;12.10;99.90
53422;DHT22;39319;52.944;5.928;2023-03-23T07:20:14;12.00;99.90
53422;DHT22;39319;52.944;5.928;2023-03-23T07:22:42;12.10;99.90
53422;DHT22;39319;52.944;5.928;2023-03-23T07:25:08;12.10;99.90
53422;DHT22;39319;52.944;5.928;2023-03-23T07:27:35;12.00;99.90
53422;DHT22;39319;52.944;5.928;2023-03-23T07:30:01;12.10;99.90
53422;DHT22;39319;52.944;5.928;2023-03-23T07:32:27;12.20;99.90
53422;DHT22;39319;52.944;5.928;2023-03-23T07:34:52;12.10;99.90
53422;DHT22;39319;52.944;5.928;2023-03-23T07:37:18;12.20;99.90
53422;DHT22;39319;52.944;5.928;2023-03-23T07:39:44;12.30;99.90
53422;DHT22;39319;52.944;5.928;2023-03-23T07:42:10;12.20;99.90
53422;DHT22;39319;52.944;5.928;2023-03-23T07:44:36;12.30;99.90
53422;DHT22;39319;52.944;5.928;2023-03-23T07:47:02;12.40;99.90
53422;DHT22;39319;52.944;5.928;2023-03-23T07:49:28;12.30;99.90
53422;DHT22;39319;52.944;5.928;2023-03-23T07:51:56;12.40;99.90
53422;DHT22;39319;52.944;5.928;2023-03-23T07:54:22;12.20;99.90
53422;DHT22;39319;52.944;5.928;2023-03-23T07:56:47;12.30;99.90
53422;DHT22;39319;52.944;5.928;2023-03-23T07:59:13;12.40;99.90
53422;DHT22;39319;52.944;5.928;2023-03-23T08:01:39;12.40;99.90
53422;DHT22;39319;52.944;5.928;2023-03-23T08:04:05;12.30;99.90
53422;DHT22;39319;52.944;5.928;2023-03-23T08:06:35;12.50;99.90
53422;DHT22;39319;52.944;5.928;2023-03-23T08:09:01;12.60;99.90
53422;DHT22;39319;52.944;5.928;2023-03-23T08:11:33;12.30;99.90
53422;DHT22;39319;52.944;5.928;2023-03-23T08:13:59;12.50;99.90
53422;DHT22;39319;52.944;5.928;2023-03-23T08:16:24;12.30;99.90
53422;DHT22;39319;52.944;5.928;2023-03-23T08:18:51;12.40;99.90
53422;DHT22;39319;52.944;5.928;2023-03-23T08:21:17;12.50;99.90
53422;DHT22;39319;52.944;5.928;2023-03-23T08:23:43;12.50;99.90
53422;DHT22;39319;52.944;5.928;2023-03-23T08:26:09;12.40;99.90
53422;DHT22;39319;52.944;5.928;2023-03-23T08:28:35;12.50;99.90
53422;DHT22;39319;52.944;5.928;2023-03-23T08:31:12;12.60;99.90
53422;DHT22;39319;52.944;5.928;2023-03-23T08:33:39;12.60;99.90
53422;DHT22;39319;52.944;5.928;2023-03-23T08:36:05;12.50;99.90
53422;DHT22;39319;52.944;5.928;2023-03-23T08:38:32;12.70;99.90
53422;DHT22;39319;52.944;5.928;2023-03-23T08:40:59;12.60;99.90
53422;DHT22;39319;52.944;5.928;2023-03-23T08:43:25;12.70;99.90
53422;DHT22;39319;52.944;5.928;2023-03-23T08:45:53;13.00;99.90
53422;DHT22;39319;52.944;5.928;2023-03-23T08:48:19;12.80;99.90
53422;DHT22;39319;52.944;5.928;2023-03-23T08:50:45;12.80;99.90
53422;DHT22;39319;52.944;5.928;2023-03-23T08:53:11;12.90;99.90
53422;DHT22;39319;52.944;5.928;2023-03-23T08:55:37;13.00;99.90
53422;DHT22;39319;52.944;5.928;2023-03-23T08:58:04;12.90;99.90
53422;DHT22;39319;52.944;5.928;2023-03-23T09:00:30;13.10;99.90
53422;DHT22;39319;52.944;5.928;2023-03-23T09:02:56;12.90;99.90
53422;DHT22;39319;52.944;5.928;2023-03-23T09:05:24;13.00;99.90
53422;DHT22;39319;52.944;5.928;2023-03-23T09:07:51;13.20;99.90
53422;DHT22;39319;52.944;5.928;2023-03-23T09:10:18;13.20;99.90
53422;DHT22;39319;52.944;5.928;2023-03-23T09:12:46;13.30;99.90
53422;DHT22;39319;52.944;5.928;2023-03-23T09:15:15;13.20;99.90
53422;DHT22;39319;52.944;5.928;2023-03-23T09:17:44;13.50;99.90
53422;DHT22;39319;52.944;5.928;2023-03-23T09:20:11;13.50;99.90
53422;DHT22;39319;52.944;5.928;2023-03-23T09:22:43;13.50;99.90
53422;DHT22;39319;52.944;5.928;2023-03-23T09:25:12;13.50;99.90
53422;DHT22;39319;52.944;5.928;2023-03-23T09:27:38;13.60;99.90
53422;DHT22;39319;52.944;5.928;2023-03-23T09:30:10;13.80;99.90
53422;DHT22;39319;52.944;5.928;2023-03-23T09:32:38;13.90;99.70
53422;DHT22;39319;52.944;5.928;2023-03-23T09:35:06;13.90;99.30
53422;DHT22;39319;52.944;5.928;2023-03-23T09:37:34;14.00;99.00
53422;DHT22;39319;52.944;5.928;2023-03-23T09:40:02;14.10;99.00
53422;DHT22;39319;52.944;5.928;2023-03-23T09:42:45;14.20;98.70
53422;DHT22;39319;52.944;5.928;2023-03-23T09:45:37;14.00;99.00
53422;DHT22;39319;52.944;5.928;2023-03-23T09:48:38;14.20;98.90
53422;DHT22;39319;52.944;5.928;2023-03-23T09:54:40;14.50;98.10
53422;DHT22;39319;52.944;5.928;2023-03-23T09:56:46;14.20;98.20
53422;DHT22;39319;52.944;5.928;2023-03-23T10:01:54;14.20;98.40
53422;DHT22;39319;52.944;5.928;2023-03-23T10:04:30;14.30;98.60
53422;DHT22;39319;52.944;5.928;2023-03-23T10:07:09;14.40;98.40
53422;DHT22;39319;52.944;5.928;2023-03-23T10:09:36;14.30;98.20
53422;DHT22;39319;52.944;5.928;2023-03-23T10:12:36;14.60;98.60
53422;DHT22;39319;52.944;5.928;2023-03-23T10:15:27;14.70;98.10
53422;DHT22;39319;52.944;5.928;2023-03-23T10:18:27;15.00;97.40
53422;DHT22;39319;52.944;5.928;2023-03-23T10:21:00;15.00;97.30
53422;DHT22;39319;52.944;5.928;2023-03-23T10:26:25;15.60;96.30
53422;DHT22;39319;52.944;5.928;2023-03-23T10:29:19;15.60;95.50
53422;DHT22;39319;52.944;5.928;2023-03-23T10:34:50;16.00;95.10
53422;DHT22;39319;52.944;5.928;2023-03-23T10:37:25;16.20;94.50
53422;DHT22;39319;52.944;5.928;2023-03-23T10:39:58;16.50;94.90
53422;DHT22;39319;52.944;5.928;2023-03-23T10:42:34;16.50;94.50
53422;DHT22;39319;52.944;5.928;2023-03-23T10:45:23;16.70;93.40
53422;DHT22;39319;52.944;5.928;2023-03-23T10:48:13;16.80;92.40
53422;DHT22;39319;52.944;5.928;2023-03-23T10:50:41;17.00;92.70
53422;DHT22;39319;52.944;5.928;2023-03-23T10:53:18;17.10;93.00
53422;DHT22;39319;52.944;5.928;2023-03-23T10:55:46;17.30;92.00
53422;DHT22;39319;52.944;5.928;2023-03-23T10:58:30;17.40;92.10
53422;DHT22;39319;52.944;5.928;2023-03-23T11:00:58;17.40;92.20
53422;DHT22;39319;52.944;5.928;2023-03-23T11:03:43;17.50;92.40
53422;DHT22;39319;52.944;5.928;2023-03-23T11:06:32;17.60;91.90
53422;DHT22;39319;52.944;5.928;2023-03-23T11:09:13;17.70;91.20
53422;DHT22;39319;52.944;5.928;2023-03-23T11:11:42;17.80;90.80
53422;DHT22;39319;52.944;5.928;2023-03-23T11:16:55;17.90;90.30
53422;DHT22;39319;52.944;5.928;2023-03-23T11:21:54;18.10;89.60
53422;DHT22;39319;52.944;5.928;2023-03-23T11:24:26;18.20;89.70
53422;DHT22;39319;52.944;5.928;2023-03-23T11:26:53;18.30;90.30
53422;DHT22;39319;52.944;5.928;2023-03-23T11:29:24;18.40;89.20
53422;DHT22;39319;52.944;5.928;2023-03-23T11:32:05;18.60;89.20
53422;DHT22;39319;52.944;5.928;2023-03-23T11:34:34;18.70;86.90
53422;DHT22;39319;52.944;5.928;2023-03-23T11:37:05;18.80;86.00
53422;DHT22;39319;52.944;5.928;2023-03-23T11:42:23;19.00;85.30
53422;DHT22;39319;52.944;5.928;2023-03-23T11:44:53;18.90;86.80
53422;DHT22;39319;52.944;5.928;2023-03-23T11:55:20;19.30;86.60
53422;DHT22;39319;52.944;5.928;2023-03-23T11:57:48;19.40;85.20
53422;DHT22;39319;52.944;5.928;2023-03-23T12:00:20;19.40;84.40
53422;DHT22;39319;52.944;5.928;2023-03-23T12:14:15;19.50;84.20
53422;DHT22;39319;52.944;5.928;2023-03-23T12:22:15;18.90;84.40
53422;DHT22;39319;52.944;5.928;2023-03-23T12:32:56;18.10;86.70
53422;DHT22;39319;52.944;5.928;2023-03-23T12:40:50;18.20;86.50
53422;DHT22;39319;52.944;5.928;2023-03-23T12:43:39;17.90;86.80
53422;DHT22;39319;52.944;5.928;2023-03-23T12:49:17;17.40;88.30
53422;DHT22;39319;52.944;5.928;2023-03-23T12:52:04;17.30;88.70
53422;DHT22;39319;52.944;5.928;2023-03-23T12:57:25;17.90;89.10
53422;DHT22;39319;52.944;5.928;2023-03-23T13:00:07;18.30;87.80
53422;DHT22;39319;52.944;5.928;2023-03-23T13:07:59;18.90;87.10
53422;DHT22;39319;52.944;5.928;2023-03-23T13:10:29;19.00;86.00
53422;DHT22;39319;52.944;5.928;2023-03-23T13:12:57;19.10;84.20
53422;DHT22;39319;52.944;5.928;2023-03-23T13:15:51;19.10;84.60
53422;DHT22;39319;52.944;5.928;2023-03-23T13:18:28;19.20;85.10
53422;DHT22;39319;52.944;5.928;2023-03-23T13:24:03;19.40;85.30
53422;DHT22;39319;52.944;5.928;2023-03-23T13:26:30;19.50;84.80
53422;DHT22;39319;52.944;5.928;2023-03-23T13:28:59;19.60;83.40
53422;DHT22;39319;52.944;5.928;2023-03-23T13:31:35;19.60;84.20
53422;DHT22;39319;52.944;5.928;2023-03-23T13:34:25;19.70;84.00
53422;DHT22;39319;52.944;5.928;2023-03-23T13:37:03;19.70;84.00
53422;DHT22;39319;52.944;5.928;2023-03-23T13:39:37;19.70;84.40
53422;DHT22;39319;52.944;5.928;2023-03-23T13:44:56;19.70;84.00
53422;DHT22;39319;52.944;5.928;2023-03-23T13:49:56;19.80;83.50
53422;DHT22;39319;52.944;5.928;2023-03-23T14:10:56;19.70;81.60
53422;DHT22;39319;52.944;5.928;2023-03-23T14:13:57;19.60;82.20
53422;DHT22;39319;52.944;5.928;2023-03-23T14:18:59;19.50;81.80
53422;DHT22;39319;52.944;5.928;2023-03-23T14:21:40;19.60;82.00
53422;DHT22;39319;52.944;5.928;2023-03-23T14:24:10;19.60;82.70
53422;DHT22;39319;52.944;5.928;2023-03-23T14:26:37;19.50;82.70
53422;DHT22;39319;52.944;5.928;2023-03-23T14:29:04;19.40;83.30
53422;DHT22;39319;52.944;5.928;2023-03-23T14:31:31;19.30;83.30
53422;DHT22;39319;52.944;5.928;2023-03-23T14:34:02;19.20;83.10
53422;DHT22;39319;52.944;5.928;2023-03-23T14:36:30;19.20;83.60
53422;DHT22;39319;52.944;5.928;2023-03-23T14:41:42;19.20;83.20
53422;DHT22;39319;52.944;5.928;2023-03-23T14:44:22;19.20;83.30
53422;DHT22;39319;52.944;5.928;2023-03-23T14:46:48;19.20;83.10
53422;DHT22;39319;52.944;5.928;2023-03-23T14:49:17;19.10;83.10
53422;DHT22;39319;52.944;5.928;2023-03-23T14:51:51;19.10;83.40
53422;DHT22;39319;52.944;5.928;2023-03-23T14:54:25;19.30;83.60
53422;DHT22;39319;52.944;5.928;2023-03-23T14:56:51;19.40;83.30
53422;DHT22;39319;52.944;5.928;2023-03-23T14:59:17;19.50;81.70
53422;DHT22;39319;52.944;5.928;2023-03-23T15:01:44;19.50;81.50
53422;DHT22;39319;52.944;5.928;2023-03-23T15:04:18;19.70;79.30
53422;DHT22;39319;52.944;5.928;2023-03-23T15:06:55;19.90;77.90
53422;DHT22;39319;52.944;5.928;2023-03-23T15:09:24;19.80;78.60
53422;DHT22;39319;52.944;5.928;2023-03-23T15:12:02;19.90;77.90
53422;DHT22;39319;52.944;5.928;2023-03-23T15:14:49;20.00;77.90
53422;DHT22;39319;52.944;5.928;2023-03-23T15:17:22;20.10;77.50
53422;DHT22;39319;52.944;5.928;2023-03-23T15:19:49;20.00;77.30
53422;DHT22;39319;52.944;5.928;2023-03-23T15:24:44;19.80;78.10
53422;DHT22;39319;52.944;5.928;2023-03-23T15:27:12;19.90;77.80
53422;DHT22;39319;52.944;5.928;2023-03-23T15:29:58;19.80;79.20
53422;DHT22;39319;52.944;5.928;2023-03-23T15:32:27;19.70;79.50
53422;DHT22;39319;52.944;5.928;2023-03-23T15:34:54;19.80;79.90
53422;DHT22;39319;52.944;5.928;2023-03-23T15:37:32;19.80;79.80
53422;DHT22;39319;52.944;5.928;2023-03-23T15:40:00;19.90;78.90
53422;DHT22;39319;52.944;5.928;2023-03-23T15:42:31;20.10;79.40
53422;DHT22;39319;52.944;5.928;2023-03-23T15:47:50;19.70;79.60
53422;DHT22;39319;52.944;5.928;2023-03-23T15:52:53;19.30;81.50
53422;DHT22;39319;52.944;5.928;2023-03-23T15:57:51;19.00;81.90
53422;DHT22;39319;52.944;5.928;2023-03-23T16:00:20;18.80;82.50
53422;DHT22;39319;52.944;5.928;2023-03-23T16:02:48;18.60;82.90
53422;DHT22;39319;52.944;5.928;2023-03-23T16:05:15;18.40;83.00
53422;DHT22;39319;52.944;5.928;2023-03-23T16:07:41;18.20;83.70
53422;DHT22;39319;52.944;5.928;2023-03-23T16:10:15;18.20;83.20
53422;DHT22;39319;52.944;5.928;2023-03-23T16:12:41;18.00;83.40
53422;DHT22;39319;52.944;5.928;2023-03-23T16:15:10;17.90;83.90
53422;DHT22;39319;52.944;5.928;2023-03-23T16:17:36;17.70;84.80
53422;DHT22;39319;52.944;5.928;2023-03-23T16:20:04;17.70;84.10
53422;DHT22;39319;52.944;5.928;2023-03-23T16:22:34;17.60;85.00
53422;DHT22;39319;52.944;5.928;2023-03-23T16:25:00;17.50;84.50
53422;DHT22;39319;52.944;5.928;2023-03-23T16:27:26;17.40;84.60
53422;DHT22;39319;52.944;5.928;2023-03-23T16:29:52;17.20;85.00
53422;DHT22;39319;52.944;5.928;2023-03-23T16:32:17;17.20;85.10
53422;DHT22;39319;52.944;5.928;2023-03-23T16:34:43;17.00;85.60
53422;DHT22;39319;52.944;5.928;2023-03-23T16:37:10;16.90;86.60
53422;DHT22;39319;52.944;5.928;2023-03-23T16:39:36;16.90;86.70
53422;DHT22;39319;52.944;5.928;2023-03-23T16:42:02;16.90;86.80
53422;DHT22;39319;52.944;5.928;2023-03-23T16:44:28;16.90;87.00
53422;DHT22;39319;52.944;5.928;2023-03-23T16:46:53;16.80;87.80
53422;DHT22;39319;52.944;5.928;2023-03-23T16:49:19;16.80;87.10
53422;DHT22;39319;52.944;5.928;2023-03-23T16:51:45;16.70;87.90
53422;DHT22;39319;52.944;5.928;2023-03-23T16:54:12;16.80;87.80
53422;DHT22;39319;52.944;5.928;2023-03-23T16:56:38;16.70;87.90
53422;DHT22;39319;52.944;5.928;2023-03-23T16:59:06;16.60;88.20
53422;DHT22;39319;52.944;5.928;2023-03-23T17:01:32;16.50;88.60
53422;DHT22;39319;52.944;5.928;2023-03-23T17:03:57;16.50;89.30
53422;DHT22;39319;52.944;5.928;2023-03-23T17:06:23;16.40;90.10
53422;DHT22;39319;52.944;5.928;2023-03-23T17:08:49;16.30;90.20
53422;DHT22;39319;52.944;5.928;2023-03-23T17:11:15;16.30;90.20
53422;DHT22;39319;52.944;5.928;2023-03-23T17:13:41;16.30;90.40
53422;DHT22;39319;52.944;5.928;2023-03-23T17:16:07;16.20;90.40
53422;DHT22;39319;52.944;5.928;2023-03-23T17:18:33;16.20;90.40
53422;DHT22;39319;52.944;5.928;2023-03-23T17:20:58;16.20;90.20
53422;DHT22;39319;52.944;5.928;2023-03-23T17:23:24;16.20;90.50
53422;DHT22;39319;52.944;5.928;2023-03-23T17:25:50;16.10;90.50
53422;DHT22;39319;52.944;5.928;2023-03-23T17:28:16;16.10;90.70
53422;DHT22;39319;52.944;5.928;2023-03-23T17:30:43;16.20;90.50
53422;DHT22;39319;52.944;5.928;2023-03-23T17:33:10;16.10;90.70
53422;DHT22;39319;52.944;5.928;2023-03-23T17:35:35;16.10;90.70
53422;DHT22;39319;52.944;5.928;2023-03-23T17:38:01;16.00;90.90
53422;DHT22;39319;52.944;5.928;2023-03-23T17:40:27;16.00;90.70
53422;DHT22;39319;52.944;5.928;2023-03-23T17:42:52;16.00;90.70
53422;DHT22;39319;52.944;5.928;2023-03-23T17:45:18;16.00;90.90
53422;DHT22;39319;52.944;5.928;2023-03-23T17:47:44;15.90;91.00
53422;DHT22;39319;52.944;5.928;2023-03-23T17:50:10;15.90;91.10
53422;DHT22;39319;52.944;5.928;2023-03-23T17:52:37;15.80;91.00
53422;DHT22;39319;52.944;5.928;2023-03-23T17:55:03;15.80;91.10
53422;DHT22;39319;52.944;5.928;2023-03-23T17:57:29;15.80;91.10
53422;DHT22;39319;52.944;5.928;2023-03-23T17:59:56;15.80;91.20